sensor_id;sensor_type;location;lat;lon;timestamp;P1;durP1;ratioP1;P2;durP2;ratioP2
1939;SDS011;1232;48.008;7.864;2022-07-25T06:25:36;24.40;;;22.70;;
1939;SDS011;1232;48.008;7.864;2022-07-25T06:28:03;25.00;;;23.30;;
1939;SDS011;1232;48.008;7.864;2022-07-25T06:30:29;24.90;;;23.23;;
1939;SDS011;1232;48.008;7.864;2022-07-25T06:32:54;24.60;;;22.57;;
1939;SDS011;1232;48.008;7.864;2022-07-25T06:35:20;23.73;;;22.23;;
1939;SDS011;1232;48.008;7.864;2022-07-25T06:37:45;23.73;;;22.10;;
1939;SDS011;1232;48.008;7.864;2022-07-25T06:40:11;23.10;;;21.70;;
1939;SDS011;1232;48.008;7.864;2022-07-25T06:42:40;23.37;;;21.87;;
1939;SDS011;1232;48.008;7.864;2022-07-25T06:45:07;23.97;;;22.27;;
1939;SDS011;1232;48.008;7.864;2022-07-25T06:47:34;22.77;;;21.27;;
1939;SDS011;1232;48.008;7.864;2022-07-25T06:50:00;23.87;;;22.17;;
1939;SDS011;1232;48.008;7.864;2022-07-25T06:52:26;23.80;;;22.10;;
1939;SDS011;1232;48.008;7.864;2022-07-25T06:54:51;22.93;;;21.33;;
1939;SDS011;1232;48.008;7.864;2022-07-25T06:57:17;23.40;;;21.83;;
1939;SDS011;1232;48.008;7.864;2022-07-25T06:59:43;24.13;;;22.03;;
1939;SDS011;1232;48.008;7.864;2022-07-25T07:02:09;22.97;;;21.40;;
1939;SDS011;1232;48.008;7.864;2022-07-25T07:04:36;22.43;;;20.87;;
1939;SDS011;1232;48.008;7.864;2022-07-25T07:07:02;23.63;;;21.80;;
1939;SDS011;1232;48.008;7.864;2022-07-25T07:09:28;22.80;;;21.10;;
1939;SDS011;1232;48.008;7.864;2022-07-25T07:11:54;24.50;;;22.90;;
1939;SDS011;1232;48.008;7.864;2022-07-25T07:14:19;22.17;;;20.87;;
1939;SDS011;1232;48.008;7.864;2022-07-25T07:16:45;23.80;;;22.00;;
1939;SDS011;1232;48.008;7.864;2022-07-25T07:19:10;22.97;;;21.27;;
1939;SDS011;1232;48.008;7.864;2022-07-25T07:21:38;22.60;;;21.10;;
1939;SDS011;1232;48.008;7.864;2022-07-25T07:24:04;22.77;;;21.27;;
1939;SDS011;1232;48.008;7.864;2022-07-25T07:26:30;22.27;;;20.60;;
1939;SDS011;1232;48.008;7.864;2022-07-25T07:28:55;21.33;;;19.93;;
1939;SDS011;1232;48.008;7.864;2022-07-25T07:31:21;22.53;;;21.03;;
1939;SDS011;1232;48.008;7.864;2022-07-25T07:33:46;22.47;;;20.97;;
1939;SDS011;1232;48.008;7.864;2022-07-25T07:36:12;22.77;;;21.20;;
1939;SDS011;1232;48.008;7.864;2022-07-25T07:38:38;21.50;;;20.10;;
1939;SDS011;1232;48.008;7.864;2022-07-25T07:41:04;22.20;;;20.80;;
1939;SDS011;1232;48.008;7.864;2022-07-25T07:43:29;21.70;;;20.13;;
1939;SDS011;1232;48.008;7.864;2022-07-25T07:45:59;22.23;;;20.80;;
1939;SDS011;1232;48.008;7.864;2022-07-25T07:48:28;22.17;;;20.67;;
1939;SDS011;1232;48.008;7.864;2022-07-25T07:50:54;21.60;;;20.20;;
1939;SDS011;1232;48.008;7.864;2022-07-25T07:53:20;22.10;;;20.60;;
1939;SDS011;1232;48.008;7.864;2022-07-25T07:55:46;21.30;;;19.90;;
1939;SDS011;1232;48.008;7.864;2022-07-25T07:58:19;21.00;;;19.60;;
1939;SDS011;1232;48.008;7.864;2022-07-25T08:00:46;21.20;;;19.80;;
1939;SDS011;1232;48.008;7.864;2022-07-25T08:03:16;20.40;;;19.10;;
1939;SDS011;1232;48.008;7.864;2022-07-25T08:05:45;21.30;;;19.87;;
1939;SDS011;1232;48.008;7.864;2022-07-25T08:08:13;21.17;;;19.77;;
1939;SDS011;1232;48.008;7.864;2022-07-25T08:10:48;21.03;;;19.63;;
1939;SDS011;1232;48.008;7.864;2022-07-25T08:15:44;21.13;;;19.83;;
1939;SDS011;1232;48.008;7.864;2022-07-25T08:18:11;20.13;;;18.83;;
1939;SDS011;1232;48.008;7.864;2022-07-25T08:20:37;20.47;;;19.17;;
1939;SDS011;1232;48.008;7.864;2022-07-25T08:23:03;20.70;;;19.10;;
1939;SDS011;1232;48.008;7.864;2022-07-25T08:25:29;20.70;;;19.30;;
1939;SDS011;1232;48.008;7.864;2022-07-25T08:27:55;20.87;;;19.37;;
1939;SDS011;1232;48.008;7.864;2022-07-25T08:30:21;20.67;;;19.47;;
1939;SDS011;1232;48.008;7.864;2022-07-25T08:32:50;19.93;;;18.63;;
1939;SDS011;1232;48.008;7.864;2022-07-25T08:35:19;20.97;;;19.57;;
1939;SDS011;1232;48.008;7.864;2022-07-25T08:37:45;20.57;;;19.17;;
1939;SDS011;1232;48.008;7.864;2022-07-25T08:40:12;20.90;;;19.50;;
1939;SDS011;1232;48.008;7.864;2022-07-25T08:42:39;20.97;;;19.57;;
1939;SDS011;1232;48.008;7.864;2022-07-25T08:45:06;21.73;;;20.07;;
1939;SDS011;1232;48.008;7.864;2022-07-25T08:47:34;22.27;;;20.87;;
1939;SDS011;1232;48.008;7.864;2022-07-25T08:50:01;21.40;;;20.07;;
1939;SDS011;1232;48.008;7.864;2022-07-25T08:52:29;20.50;;;19.10;;
1939;SDS011;1232;48.008;7.864;2022-07-25T08:54:55;21.63;;;20.27;;
1939;SDS011;1232;48.008;7.864;2022-07-25T08:57:21;20.90;;;19.57;;
1939;SDS011;1232;48.008;7.864;2022-07-25T08:59:47;21.87;;;20.37;;
1939;SDS011;1232;48.008;7.864;2022-07-25T09:02:13;21.00;;;19.70;;
1939;SDS011;1232;48.008;7.864;2022-07-25T09:04:39;21.40;;;20.10;;
1939;SDS011;1232;48.008;7.864;2022-07-25T09:07:05;22.10;;;20.57;;
1939;SDS011;1232;48.008;7.864;2022-07-25T09:09:35;21.03;;;19.60;;
1939;SDS011;1232;48.008;7.864;2022-07-25T09:12:03;22.10;;;20.50;;
1939;SDS011;1232;48.008;7.864;2022-07-25T09:14:29;22.33;;;20.50;;
1939;SDS011;1232;48.008;7.864;2022-07-25T09:17:05;21.40;;;19.90;;
1939;SDS011;1232;48.008;7.864;2022-07-25T09:19:31;21.00;;;19.70;;
1939;SDS011;1232;48.008;7.864;2022-07-25T09:22:01;20.07;;;18.80;;
1939;SDS011;1232;48.008;7.864;2022-07-25T09:24:31;21.60;;;20.00;;
1939;SDS011;1232;48.008;7.864;2022-07-25T09:26:59;20.87;;;19.47;;
1939;SDS011;1232;48.008;7.864;2022-07-25T09:29:33;21.17;;;19.57;;
1939;SDS011;1232;48.008;7.864;2022-07-25T09:31:59;21.60;;;20.23;;
1939;SDS011;1232;48.008;7.864;2022-07-25T09:34:36;20.60;;;19.27;;
1939;SDS011;1232;48.008;7.864;2022-07-25T09:37:04;20.63;;;19.33;;
1939;SDS011;1232;48.008;7.864;2022-07-25T09:42:02;20.87;;;19.57;;
1939;SDS011;1232;48.008;7.864;2022-07-25T09:47:28;21.33;;;20.03;;
1939;SDS011;1232;48.008;7.864;2022-07-25T09:49:54;21.10;;;19.70;;
1939;SDS011;1232;48.008;7.864;2022-07-25T09:52:21;22.13;;;20.73;;
1939;SDS011;1232;48.008;7.864;2022-07-25T09:54:46;21.30;;;19.90;;
1939;SDS011;1232;48.008;7.864;2022-07-25T09:57:12;22.07;;;20.30;;
1939;SDS011;1232;48.008;7.864;2022-07-25T09:59:38;22.40;;;21.00;;
1939;SDS011;1232;48.008;7.864;2022-07-25T10:02:08;22.13;;;20.63;;
1939;SDS011;1232;48.008;7.864;2022-07-25T10:07:41;21.53;;;20.20;;
1939;SDS011;1232;48.008;7.864;2022-07-25T10:10:19;22.00;;;20.50;;
1939;SDS011;1232;48.008;7.864;2022-07-25T10:12:57;21.67;;;20.20;;
1939;SDS011;1232;48.008;7.864;2022-07-25T10:15:38;21.70;;;20.30;;
1939;SDS011;1232;48.008;7.864;2022-07-25T10:18:04;21.30;;;19.90;;
1939;SDS011;1232;48.008;7.864;2022-07-25T10:20:32;21.10;;;19.77;;
1939;SDS011;1232;48.008;7.864;2022-07-25T10:22:58;22.00;;;20.50;;
1939;SDS011;1232;48.008;7.864;2022-07-25T10:25:23;21.00;;;19.60;;
1939;SDS011;1232;48.008;7.864;2022-07-25T10:27:50;21.53;;;20.13;;
1939;SDS011;1232;48.008;7.864;2022-07-25T10:30:43;21.60;;;20.30;;
1939;SDS011;1232;48.008;7.864;2022-07-25T10:33:12;21.83;;;20.43;;
1939;SDS011;1232;48.008;7.864;2022-07-25T10:35:41;20.93;;;19.67;;
1939;SDS011;1232;48.008;7.864;2022-07-25T10:38:08;21.47;;;20.07;;
1939;SDS011;1232;48.008;7.864;2022-07-25T10:40:36;22.00;;;20.60;;
1939;SDS011;1232;48.008;7.864;2022-07-25T10:45:49;21.43;;;20.13;;
1939;SDS011;1232;48.008;7.864;2022-07-25T10:48:24;21.80;;;20.23;;
1939;SDS011;1232;48.008;7.864;2022-07-25T10:51:02;20.80;;;19.47;;
1939;SDS011;1232;48.008;7.864;2022-07-25T10:53:33;22.73;;;21.33;;
1939;SDS011;1232;48.008;7.864;2022-07-25T10:56:03;22.60;;;21.10;;
1939;SDS011;1232;48.008;7.864;2022-07-25T11:03:54;22.30;;;20.87;;
1939;SDS011;1232;48.008;7.864;2022-07-25T11:06:32;21.70;;;20.20;;
1939;SDS011;1232;48.008;7.864;2022-07-25T11:09:00;21.80;;;20.40;;
1939;SDS011;1232;48.008;7.864;2022-07-25T11:11:34;22.30;;;20.77;;
1939;SDS011;1232;48.008;7.864;2022-07-25T11:16:27;22.97;;;21.20;;
1939;SDS011;1232;48.008;7.864;2022-07-25T11:18:54;22.47;;;20.87;;
1939;SDS011;1232;48.008;7.864;2022-07-25T11:21:19;22.40;;;20.80;;
1939;SDS011;1232;48.008;7.864;2022-07-25T11:23:51;20.80;;;19.50;;
1939;SDS011;1232;48.008;7.864;2022-07-25T11:26:16;21.77;;;20.47;;
1939;SDS011;1232;48.008;7.864;2022-07-25T11:28:43;21.67;;;20.27;;
1939;SDS011;1232;48.008;7.864;2022-07-25T11:31:12;21.70;;;20.03;;
1939;SDS011;1232;48.008;7.864;2022-07-25T11:33:39;22.20;;;20.70;;
1939;SDS011;1232;48.008;7.864;2022-07-25T11:36:06;21.50;;;20.00;;
1939;SDS011;1232;48.008;7.864;2022-07-25T11:38:34;21.83;;;20.40;;
1939;SDS011;1232;48.008;7.864;2022-07-25T11:41:01;22.23;;;20.53;;
1939;SDS011;1232;48.008;7.864;2022-07-25T11:43:27;21.80;;;20.40;;
1939;SDS011;1232;48.008;7.864;2022-07-25T11:46:03;23.97;;;21.53;;
1939;SDS011;1232;48.008;7.864;2022-07-25T11:48:36;22.07;;;20.47;;
1939;SDS011;1232;48.008;7.864;2022-07-25T11:51:08;21.83;;;20.43;;
1939;SDS011;1232;48.008;7.864;2022-07-25T11:53:48;21.50;;;20.10;;
1939;SDS011;1232;48.008;7.864;2022-07-25T11:56:18;21.70;;;20.30;;
1939;SDS011;1232;48.008;7.864;2022-07-25T11:58:56;21.93;;;20.33;;
1939;SDS011;1232;48.008;7.864;2022-07-25T12:01:23;22.37;;;20.77;;
1939;SDS011;1232;48.008;7.864;2022-07-25T12:03:49;21.17;;;19.60;;
1939;SDS011;1232;48.008;7.864;2022-07-25T12:06:17;21.50;;;20.10;;
1939;SDS011;1232;48.008;7.864;2022-07-25T12:08:42;21.17;;;19.87;;
1939;SDS011;1232;48.008;7.864;2022-07-25T12:11:18;20.57;;;19.27;;
1939;SDS011;1232;48.008;7.864;2022-07-25T12:13:45;21.43;;;20.07;;
1939;SDS011;1232;48.008;7.864;2022-07-25T12:16:11;21.13;;;19.83;;
1939;SDS011;1232;48.008;7.864;2022-07-25T12:18:37;22.10;;;20.60;;
1939;SDS011;1232;48.008;7.864;2022-07-25T12:21:03;22.17;;;20.77;;
1939;SDS011;1232;48.008;7.864;2022-07-25T12:23:29;21.83;;;20.23;;
1939;SDS011;1232;48.008;7.864;2022-07-25T12:25:54;22.07;;;20.57;;
1939;SDS011;1232;48.008;7.864;2022-07-25T12:28:20;20.50;;;19.10;;
1939;SDS011;1232;48.008;7.864;2022-07-25T12:30:46;22.33;;;20.77;;
1939;SDS011;1232;48.008;7.864;2022-07-25T12:33:12;21.07;;;19.77;;
1939;SDS011;1232;48.008;7.864;2022-07-25T12:35:41;22.37;;;20.77;;
1939;SDS011;1232;48.008;7.864;2022-07-25T12:38:08;22.60;;;20.70;;
1939;SDS011;1232;48.008;7.864;2022-07-25T12:40:35;22.20;;;20.60;;
1939;SDS011;1232;48.008;7.864;2022-07-25T12:43:01;22.43;;;20.97;;
1939;SDS011;1232;48.008;7.864;2022-07-25T12:45:27;22.33;;;20.80;;
1939;SDS011;1232;48.008;7.864;2022-07-25T12:47:53;22.43;;;20.90;;
1939;SDS011;1232;48.008;7.864;2022-07-25T12:50:19;22.53;;;21.03;;
1939;SDS011;1232;48.008;7.864;2022-07-25T12:52:45;21.87;;;20.40;;
1939;SDS011;1232;48.008;7.864;2022-07-25T12:55:12;23.70;;;21.90;;
1939;SDS011;1232;48.008;7.864;2022-07-25T12:57:39;22.23;;;20.67;;
1939;SDS011;1232;48.008;7.864;2022-07-25T13:00:06;22.33;;;20.83;;
1939;SDS011;1232;48.008;7.864;2022-07-25T13:02:34;21.73;;;20.33;;
1939;SDS011;1232;48.008;7.864;2022-07-25T13:05:00;22.03;;;20.53;;
1939;SDS011;1232;48.008;7.864;2022-07-25T13:07:26;20.67;;;19.30;;
1939;SDS011;1232;48.008;7.864;2022-07-25T13:09:52;21.07;;;19.60;;
1939;SDS011;1232;48.008;7.864;2022-07-25T13:12:18;21.97;;;20.57;;
1939;SDS011;1232;48.008;7.864;2022-07-25T13:14:44;21.60;;;20.30;;
1939;SDS011;1232;48.008;7.864;2022-07-25T13:17:10;21.87;;;20.37;;
1939;SDS011;1232;48.008;7.864;2022-07-25T13:19:35;22.00;;;20.60;;
1939;SDS011;1232;48.008;7.864;2022-07-25T13:22:01;21.23;;;19.63;;
1939;SDS011;1232;48.008;7.864;2022-07-25T13:24:27;25.90;;;23.40;;
1939;SDS011;1232;48.008;7.864;2022-07-25T13:26:52;21.77;;;20.33;;
1939;SDS011;1232;48.008;7.864;2022-07-25T13:29:18;22.07;;;20.57;;
1939;SDS011;1232;48.008;7.864;2022-07-25T13:31:43;21.97;;;20.57;;
1939;SDS011;1232;48.008;7.864;2022-07-25T13:34:09;21.07;;;19.67;;
1939;SDS011;1232;48.008;7.864;2022-07-25T13:36:35;21.90;;;20.20;;
1939;SDS011;1232;48.008;7.864;2022-07-25T13:39:02;22.27;;;20.87;;
1939;SDS011;1232;48.008;7.864;2022-07-25T13:41:28;21.80;;;20.40;;
1939;SDS011;1232;48.008;7.864;2022-07-25T13:43:53;21.20;;;19.80;;
1939;SDS011;1232;48.008;7.864;2022-07-25T13:46:19;21.43;;;20.13;;
1939;SDS011;1232;48.008;7.864;2022-07-25T13:48:45;22.20;;;20.60;;
1939;SDS011;1232;48.008;7.864;2022-07-25T13:51:10;21.43;;;20.03;;
1939;SDS011;1232;48.008;7.864;2022-07-25T13:53:36;22.00;;;20.20;;
1939;SDS011;1232;48.008;7.864;2022-07-25T13:56:02;21.57;;;20.13;;
1939;SDS011;1232;48.008;7.864;2022-07-25T13:58:28;21.83;;;20.40;;
1939;SDS011;1232;48.008;7.864;2022-07-25T14:00:53;21.53;;;20.03;;
1939;SDS011;1232;48.008;7.864;2022-07-25T14:03:19;21.73;;;20.17;;
1939;SDS011;1232;48.008;7.864;2022-07-25T14:05:45;21.37;;;19.83;;
1939;SDS011;1232;48.008;7.864;2022-07-25T14:08:10;20.83;;;19.43;;
1939;SDS011;1232;48.008;7.864;2022-07-25T14:10:36;22.07;;;20.67;;
1939;SDS011;1232;48.008;7.864;2022-07-25T14:13:02;21.80;;;20.00;;
1939;SDS011;1232;48.008;7.864;2022-07-25T14:15:27;21.10;;;19.70;;
1939;SDS011;1232;48.008;7.864;2022-07-25T14:17:53;22.73;;;21.13;;
1939;SDS011;1232;48.008;7.864;2022-07-25T14:20:19;22.83;;;21.17;;
1939;SDS011;1232;48.008;7.864;2022-07-25T14:22:44;22.13;;;20.60;;
1939;SDS011;1232;48.008;7.864;2022-07-25T14:25:10;22.10;;;20.60;;
1939;SDS011;1232;48.008;7.864;2022-07-25T14:27:36;21.90;;;20.40;;
1939;SDS011;1232;48.008;7.864;2022-07-25T14:30:03;23.00;;;21.40;;
1939;SDS011;1232;48.008;7.864;2022-07-25T14:32:29;22.10;;;20.53;;
1939;SDS011;1232;48.008;7.864;2022-07-25T14:34:55;23.10;;;21.27;;
1939;SDS011;1232;48.008;7.864;2022-07-25T14:37:20;22.77;;;21.17;;
1939;SDS011;1232;48.008;7.864;2022-07-25T14:39:47;22.10;;;20.60;;
1939;SDS011;1232;48.008;7.864;2022-07-25T14:42:14;23.47;;;21.60;;
1939;SDS011;1232;48.008;7.864;2022-07-25T14:44:40;22.83;;;21.23;;
1939;SDS011;1232;48.008;7.864;2022-07-25T14:47:05;23.67;;;21.97;;
1939;SDS011;1232;48.008;7.864;2022-07-25T14:49:31;22.43;;;20.83;;
1939;SDS011;1232;48.008;7.864;2022-07-25T14:51:57;24.60;;;22.60;;
1939;SDS011;1232;48.008;7.864;2022-07-25T14:54:23;22.50;;;21.00;;
1939;SDS011;1232;48.008;7.864;2022-07-25T14:56:52;21.73;;;20.23;;
1939;SDS011;1232;48.008;7.864;2022-07-25T14:59:19;23.63;;;21.90;;
1939;SDS011;1232;48.008;7.864;2022-07-25T15:01:45;22.73;;;21.20;;
1939;SDS011;1232;48.008;7.864;2022-07-25T15:04:10;22.30;;;20.90;;
1939;SDS011;1232;48.008;7.864;2022-07-25T15:06:36;22.73;;;21.13;;
1939;SDS011;1232;48.008;7.864;2022-07-25T15:09:02;21.70;;;20.30;;
1939;SDS011;1232;48.008;7.864;2022-07-25T15:11:28;22.67;;;20.80;;
1939;SDS011;1232;48.008;7.864;2022-07-25T15:13:53;22.63;;;21.13;;
1939;SDS011;1232;48.008;7.864;2022-07-25T15:16:19;22.53;;;21.03;;
1939;SDS011;1232;48.008;7.864;2022-07-25T15:18:45;21.57;;;20.17;;
1939;SDS011;1232;48.008;7.864;2022-07-25T15:21:10;21.57;;;20.17;;
1939;SDS011;1232;48.008;7.864;2022-07-25T15:23:36;22.00;;;20.60;;
1939;SDS011;1232;48.008;7.864;2022-07-25T15:26:02;22.93;;;21.10;;
1939;SDS011;1232;48.008;7.864;2022-07-25T15:28:32;22.07;;;20.67;;
1939;SDS011;1232;48.008;7.864;2022-07-25T15:30:59;21.77;;;20.37;;
1939;SDS011;1232;48.008;7.864;2022-07-25T15:33:25;24.13;;;22.27;;
1939;SDS011;1232;48.008;7.864;2022-07-25T15:35:50;21.90;;;20.40;;
1939;SDS011;1232;48.008;7.864;2022-07-25T15:38:16;21.37;;;19.97;;
1939;SDS011;1232;48.008;7.864;2022-07-25T15:40:42;22.60;;;20.93;;
1939;SDS011;1232;48.008;7.864;2022-07-25T15:43:09;22.40;;;20.80;;
1939;SDS011;1232;48.008;7.864;2022-07-25T15:45:38;22.63;;;21.03;;
1939;SDS011;1232;48.008;7.864;2022-07-25T15:48:06;22.10;;;20.47;;
1939;SDS011;1232;48.008;7.864;2022-07-25T15:50:33;22.10;;;20.70;;
1939;SDS011;1232;48.008;7.864;2022-07-25T15:52:59;22.77;;;21.27;;
1939;SDS011;1232;48.008;7.864;2022-07-25T15:55:25;22.93;;;21.43;;
1939;SDS011;1232;48.008;7.864;2022-07-25T15:57:51;22.90;;;21.20;;
1939;SDS011;1232;48.008;7.864;2022-07-25T16:00:17;22.27;;;20.73;;
1939;SDS011;1232;48.008;7.864;2022-07-25T16:02:43;22.10;;;20.70;;
1939;SDS011;1232;48.008;7.864;2022-07-25T16:05:10;22.47;;;20.97;;
1939;SDS011;1232;48.008;7.864;2022-07-25T16:07:36;22.57;;;21.07;;
1939;SDS011;1232;48.008;7.864;2022-07-25T16:10:02;22.40;;;20.90;;
1939;SDS011;1232;48.008;7.864;2022-07-25T16:12:28;21.97;;;20.47;;
1939;SDS011;1232;48.008;7.864;2022-07-25T16:14:54;22.63;;;21.00;;
1939;SDS011;1232;48.008;7.864;2022-07-25T16:17:20;21.50;;;20.10;;
1939;SDS011;1232;48.008;7.864;2022-07-25T16:19:46;22.43;;;20.93;;
1939;SDS011;1232;48.008;7.864;2022-07-25T16:22:11;21.60;;;20.10;;
1939;SDS011;1232;48.008;7.864;2022-07-25T16:24:37;22.50;;;20.70;;
1939;SDS011;1232;48.008;7.864;2022-07-25T16:27:03;21.57;;;20.07;;
1939;SDS011;1232;48.008;7.864;2022-07-25T16:29:29;21.97;;;20.47;;
1939;SDS011;1232;48.008;7.864;2022-07-25T16:31:54;22.10;;;20.50;;
1939;SDS011;1232;48.008;7.864;2022-07-25T16:34:23;20.70;;;19.30;;
1939;SDS011;1232;48.008;7.864;2022-07-25T16:36:49;21.60;;;20.10;;
1939;SDS011;1232;48.008;7.864;2022-07-25T16:39:16;20.80;;;19.40;;
1939;SDS011;1232;48.008;7.864;2022-07-25T16:41:42;20.37;;;19.07;;
1939;SDS011;1232;48.008;7.864;2022-07-25T16:44:08;21.03;;;19.40;;
1939;SDS011;1232;48.008;7.864;2022-07-25T16:46:34;21.07;;;19.50;;
1939;SDS011;1232;48.008;7.864;2022-07-25T16:49:00;20.97;;;19.57;;
1939;SDS011;1232;48.008;7.864;2022-07-25T16:51:25;20.93;;;19.53;;
1939;SDS011;1232;48.008;7.864;2022-07-25T16:53:51;21.10;;;19.60;;
1939;SDS011;1232;48.008;7.864;2022-07-25T16:56:17;20.60;;;19.10;;
1939;SDS011;1232;48.008;7.864;2022-07-25T16:58:43;20.80;;;19.40;;
1939;SDS011;1232;48.008;7.864;2022-07-25T17:01:10;21.07;;;19.40;;
1939;SDS011;1232;48.008;7.864;2022-07-25T17:03:36;20.17;;;18.80;;
1939;SDS011;1232;48.008;7.864;2022-07-25T17:06:02;21.17;;;19.80;;
1939;SDS011;1232;48.008;7.864;2022-07-25T17:08:27;20.77;;;19.47;;
1939;SDS011;1232;48.008;7.864;2022-07-25T17:10:55;21.63;;;20.17;;
1939;SDS011;1232;48.008;7.864;2022-07-25T17:13:21;20.60;;;19.20;;
1939;SDS011;1232;48.008;7.864;2022-07-25T17:15:46;21.13;;;19.63;;
1939;SDS011;1232;48.008;7.864;2022-07-25T17:18:12;21.77;;;20.27;;
1939;SDS011;1232;48.008;7.864;2022-07-25T17:20:38;21.10;;;19.57;;
1939;SDS011;1232;48.008;7.864;2022-07-25T17:23:03;21.43;;;19.73;;
1939;SDS011;1232;48.008;7.864;2022-07-25T17:25:29;20.97;;;19.43;;
1939;SDS011;1232;48.008;7.864;2022-07-25T17:27:55;21.90;;;20.07;;
1939;SDS011;1232;48.008;7.864;2022-07-25T17:30:20;20.63;;;19.30;;
1939;SDS011;1232;48.008;7.864;2022-07-25T17:32:46;20.57;;;19.17;;
1939;SDS011;1232;48.008;7.864;2022-07-25T17:35:12;21.43;;;20.10;;
1939;SDS011;1232;48.008;7.864;2022-07-25T17:37:38;20.93;;;19.50;;
1939;SDS011;1232;48.008;7.864;2022-07-25T17:40:04;20.67;;;18.90;;
1939;SDS011;1232;48.008;7.864;2022-07-25T17:42:30;20.70;;;19.30;;
1939;SDS011;1232;48.008;7.864;2022-07-25T17:44:56;21.40;;;20.00;;
1939;SDS011;1232;48.008;7.864;2022-07-25T17:47:22;20.37;;;19.07;;
1939;SDS011;1232;48.008;7.864;2022-07-25T17:49:47;20.20;;;19.00;;
1939;SDS011;1232;48.008;7.864;2022-07-25T17:52:13;19.70;;;18.50;;
1939;SDS011;1232;48.008;7.864;2022-07-25T17:54:40;21.23;;;19.93;;
1939;SDS011;1232;48.008;7.864;2022-07-25T17:57:06;20.70;;;19.30;;
1939;SDS011;1232;48.008;7.864;2022-07-25T17:59:32;21.00;;;19.43;;
1939;SDS011;1232;48.008;7.864;2022-07-25T18:01:58;20.53;;;19.20;;
1939;SDS011;1232;48.008;7.864;2022-07-25T18:04:25;20.90;;;19.27;;
1939;SDS011;1232;48.008;7.864;2022-07-25T18:06:51;20.47;;;19.23;;
1939;SDS011;1232;48.008;7.864;2022-07-25T18:09:16;20.70;;;19.40;;
1939;SDS011;1232;48.008;7.864;2022-07-25T18:11:44;21.80;;;20.10;;
1939;SDS011;1232;48.008;7.864;2022-07-25T18:14:10;21.30;;;19.90;;
1939;SDS011;1232;48.008;7.864;2022-07-25T18:16:35;21.43;;;20.00;;
1939;SDS011;1232;48.008;7.864;2022-07-25T18:19:02;20.93;;;19.43;;
1939;SDS011;1232;48.008;7.864;2022-07-25T18:21:28;20.13;;;18.83;;
1939;SDS011;1232;48.008;7.864;2022-07-25T18:23:54;20.60;;;19.30;;
1939;SDS011;1232;48.008;7.864;2022-07-25T18:26:19;21.33;;;19.80;;
1939;SDS011;1232;48.008;7.864;2022-07-25T18:28:45;20.93;;;19.63;;
1939;SDS011;1232;48.008;7.864;2022-07-25T18:31:11;20.50;;;19.00;;
1939;SDS011;1232;48.008;7.864;2022-07-25T18:33:37;20.17;;;18.97;;
1939;SDS011;1232;48.008;7.864;2022-07-25T18:36:03;20.63;;;19.37;;
1939;SDS011;1232;48.008;7.864;2022-07-25T18:38:29;23.53;;;21.57;;
1939;SDS011;1232;48.008;7.864;2022-07-25T18:40:55;20.73;;;19.33;;
1939;SDS011;1232;48.008;7.864;2022-07-25T18:43:21;20.23;;;19.03;;
1939;SDS011;1232;48.008;7.864;2022-07-25T18:45:46;20.50;;;19.00;;
1939;SDS011;1232;48.008;7.864;2022-07-25T18:48:12;21.10;;;19.67;;
1939;SDS011;1232;48.008;7.864;2022-07-25T18:50:38;20.30;;;18.90;;
1939;SDS011;1232;48.008;7.864;2022-07-25T18:53:04;21.03;;;19.63;;
1939;SDS011;1232;48.008;7.864;2022-07-25T18:55:30;19.97;;;18.67;;
1939;SDS011;1232;48.008;7.864;2022-07-25T18:57:55;21.40;;;19.80;;
1939;SDS011;1232;48.008;7.864;2022-07-25T19:00:21;20.23;;;18.83;;
1939;SDS011;1232;48.008;7.864;2022-07-25T19:02:47;20.03;;;18.83;;
1939;SDS011;1232;48.008;7.864;2022-07-25T19:05:12;20.70;;;19.20;;
1939;SDS011;1232;48.008;7.864;2022-07-25T19:07:38;20.20;;;18.90;;
1939;SDS011;1232;48.008;7.864;2022-07-25T19:10:04;19.87;;;18.57;;
1939;SDS011;1232;48.008;7.864;2022-07-25T19:12:30;20.43;;;19.03;;
1939;SDS011;1232;48.008;7.864;2022-07-25T19:14:56;19.43;;;18.13;;
1939;SDS011;1232;48.008;7.864;2022-07-25T19:17:21;19.87;;;18.47;;
1939;SDS011;1232;48.008;7.864;2022-07-25T19:19:48;20.90;;;19.20;;
1939;SDS011;1232;48.008;7.864;2022-07-25T19:22:14;21.03;;;19.63;;
1939;SDS011;1232;48.008;7.864;2022-07-25T19:24:40;20.10;;;18.80;;
1939;SDS011;1232;48.008;7.864;2022-07-25T19:27:06;20.47;;;18.97;;
1939;SDS011;1232;48.008;7.864;2022-07-25T19:29:33;19.77;;;18.47;;
1939;SDS011;1232;48.008;7.864;2022-07-25T19:31:59;20.47;;;19.00;;
1939;SDS011;1232;48.008;7.864;2022-07-25T19:34:24;19.77;;;18.47;;
1939;SDS011;1232;48.008;7.864;2022-07-25T19:36:50;19.93;;;18.60;;
1939;SDS011;1232;48.008;7.864;2022-07-25T19:39:16;19.80;;;18.30;;
1939;SDS011;1232;48.008;7.864;2022-07-25T19:41:41;18.97;;;17.77;;
1939;SDS011;1232;48.008;7.864;2022-07-25T19:44:07;19.70;;;18.40;;
1939;SDS011;1232;48.008;7.864;2022-07-25T19:46:33;19.23;;;17.93;;
